sensor_id;sensor_type;location;lat;lon;timestamp;pressure;altitude;pressure_sealevel;temperature
72278;BMP280;61204;49.980;8.358;2024-01-30T00:00:22;101886.81;;;2.29
72278;BMP280;61204;49.980;8.358;2024-01-30T00:02:50;101876.00;;;2.29
72278;BMP280;61204;49.980;8.358;2024-01-30T00:05:18;101883.31;;;2.22
72278;BMP280;61204;49.980;8.358;2024-01-30T00:07:44;101891.13;;;2.15
72278;BMP280;61204;49.980;8.358;2024-01-30T00:10:09;101896.25;;;2.07
72278;BMP280;61204;49.980;8.358;2024-01-30T00:12:35;101888.56;;;2.00
72278;BMP280;61204;49.980;8.358;2024-01-30T00:15:00;101894.75;;;2.06
72278;BMP280;61204;49.980;8.358;2024-01-30T00:17:30;101891.56;;;2.08
72278;BMP280;61204;49.980;8.358;2024-01-30T00:19:56;101879.03;;;2.05
72278;BMP280;61204;49.980;8.358;2024-01-30T00:22:21;101879.50;;;2.03
72278;BMP280;61204;49.980;8.358;2024-01-30T00:24:47;101880.34;;;1.89
72278;BMP280;61204;49.980;8.358;2024-01-30T00:27:12;101875.16;;;1.80
72278;BMP280;61204;49.980;8.358;2024-01-30T00:29:41;101882.22;;;1.71
72278;BMP280;61204;49.980;8.358;2024-01-30T00:32:06;101885.06;;;1.62
72278;BMP280;61204;49.980;8.358;2024-01-30T00:34:32;101887.72;;;1.57
72278;BMP280;61204;49.980;8.358;2024-01-30T00:37:00;101887.94;;;1.53
72278;BMP280;61204;49.980;8.358;2024-01-30T00:39:25;101880.06;;;1.55
72278;BMP280;61204;49.980;8.358;2024-01-30T00:41:53;101877.59;;;1.52
72278;BMP280;61204;49.980;8.358;2024-01-30T00:44:21;101873.06;;;1.43
72278;BMP280;61204;49.980;8.358;2024-01-30T00:46:49;101880.41;;;1.37
72278;BMP280;61204;49.980;8.358;2024-01-30T00:49:15;101878.47;;;1.43
72278;BMP280;61204;49.980;8.358;2024-01-30T00:51:40;101883.16;;;1.42
72278;BMP280;61204;49.980;8.358;2024-01-30T00:54:06;101884.50;;;1.53
72278;BMP280;61204;49.980;8.358;2024-01-30T00:56:32;101885.16;;;1.47
72278;BMP280;61204;49.980;8.358;2024-01-30T00:58:58;101890.03;;;1.43
72278;BMP280;61204;49.980;8.358;2024-01-30T01:01:24;101894.50;;;1.46
72278;BMP280;61204;49.980;8.358;2024-01-30T01:03:49;101878.75;;;1.45
72278;BMP280;61204;49.980;8.358;2024-01-30T01:06:19;101878.22;;;1.41
72278;BMP280;61204;49.980;8.358;2024-01-30T01:08:45;101882.59;;;1.33
72278;BMP280;61204;49.980;8.358;2024-01-30T01:11:10;101889.81;;;1.21
72278;BMP280;61204;49.980;8.358;2024-01-30T01:13:41;101891.13;;;1.05
72278;BMP280;61204;49.980;8.358;2024-01-30T01:16:06;101886.47;;;0.85
72278;BMP280;61204;49.980;8.358;2024-01-30T01:18:32;101888.13;;;0.83
72278;BMP280;61204;49.980;8.358;2024-01-30T01:21:00;101885.63;;;0.79
72278;BMP280;61204;49.980;8.358;2024-01-30T01:23:26;101888.34;;;0.79
72278;BMP280;61204;49.980;8.358;2024-01-30T01:25:51;101884.91;;;0.79
72278;BMP280;61204;49.980;8.358;2024-01-30T01:28:17;101895.47;;;0.62
72278;BMP280;61204;49.980;8.358;2024-01-30T01:30:42;101897.75;;;0.48
72278;BMP280;61204;49.980;8.358;2024-01-30T01:33:11;101897.75;;;0.48
72278;BMP280;61204;49.980;8.358;2024-01-30T01:35:39;101892.47;;;0.39
72278;BMP280;61204;49.980;8.358;2024-01-30T01:38:05;101895.50;;;0.27
72278;BMP280;61204;49.980;8.358;2024-01-30T01:40:30;101887.97;;;0.31
72278;BMP280;61204;49.980;8.358;2024-01-30T01:42:56;101882.34;;;0.34
72278;BMP280;61204;49.980;8.358;2024-01-30T01:45:22;101878.66;;;0.32
72278;BMP280;61204;49.980;8.358;2024-01-30T01:47:51;101878.34;;;0.30
72278;BMP280;61204;49.980;8.358;2024-01-30T01:50:18;101888.09;;;0.42
72278;BMP280;61204;49.980;8.358;2024-01-30T01:52:50;101883.88;;;0.41
72278;BMP280;61204;49.980;8.358;2024-01-30T01:55:17;101877.84;;;0.46
72278;BMP280;61204;49.980;8.358;2024-01-30T01:57:52;101878.34;;;0.65
72278;BMP280;61204;49.980;8.358;2024-01-30T02:00:19;101873.88;;;0.62
72278;BMP280;61204;49.980;8.358;2024-01-30T02:02:46;101872.81;;;0.74
72278;BMP280;61204;49.980;8.358;2024-01-30T02:05:15;101874.09;;;0.79
72278;BMP280;61204;49.980;8.358;2024-01-30T02:07:42;101877.97;;;0.72
72278;BMP280;61204;49.980;8.358;2024-01-30T02:10:11;101878.28;;;0.80
72278;BMP280;61204;49.980;8.358;2024-01-30T02:12:37;101871.72;;;0.66
72278;BMP280;61204;49.980;8.358;2024-01-30T02:15:03;101867.78;;;0.46
72278;BMP280;61204;49.980;8.358;2024-01-30T02:17:30;101860.88;;;0.25
72278;BMP280;61204;49.980;8.358;2024-01-30T02:19:56;101870.94;;;0.10
72278;BMP280;61204;49.980;8.358;2024-01-30T02:22:22;101866.03;;;-0.07
72278;BMP280;61204;49.980;8.358;2024-01-30T02:24:49;101869.09;;;-0.14
72278;BMP280;61204;49.980;8.358;2024-01-30T02:27:15;101865.56;;;-0.20
72278;BMP280;61204;49.980;8.358;2024-01-30T02:29:43;101866.28;;;0.10
72278;BMP280;61204;49.980;8.358;2024-01-30T02:32:08;101868.03;;;0.28
72278;BMP280;61204;49.980;8.358;2024-01-30T02:34:36;101866.59;;;0.33
72278;BMP280;61204;49.980;8.358;2024-01-30T02:37:04;101866.41;;;0.36
72278;BMP280;61204;49.980;8.358;2024-01-30T02:39:29;101868.19;;;0.39
72278;BMP280;61204;49.980;8.358;2024-01-30T02:41:55;101870.66;;;0.22
72278;BMP280;61204;49.980;8.358;2024-01-30T02:44:21;101866.47;;;0.21
72278;BMP280;61204;49.980;8.358;2024-01-30T02:46:47;101873.09;;;0.20
72278;BMP280;61204;49.980;8.358;2024-01-30T02:49:15;101869.00;;;0.10
72278;BMP280;61204;49.980;8.358;2024-01-30T02:51:40;101868.91;;;0.05
72278;BMP280;61204;49.980;8.358;2024-01-30T02:54:06;101871.34;;;-0.12
72278;BMP280;61204;49.980;8.358;2024-01-30T02:56:31;101878.31;;;-0.20
72278;BMP280;61204;49.980;8.358;2024-01-30T02:58:57;101868.81;;;-0.16
72278;BMP280;61204;49.980;8.358;2024-01-30T03:01:22;101866.50;;;-0.23
72278;BMP280;61204;49.980;8.358;2024-01-30T03:03:49;101869.59;;;-0.30
72278;BMP280;61204;49.980;8.358;2024-01-30T03:06:15;101857.41;;;-0.26
72278;BMP280;61204;49.980;8.358;2024-01-30T03:08:42;101860.16;;;-0.35
72278;BMP280;61204;49.980;8.358;2024-01-30T03:11:10;101852.16;;;-0.44
72278;BMP280;61204;49.980;8.358;2024-01-30T03:13:36;101856.59;;;-0.56
72278;BMP280;61204;49.980;8.358;2024-01-30T03:16:04;101852.06;;;-0.64
72278;BMP280;61204;49.980;8.358;2024-01-30T03:18:30;101865.44;;;-0.55
72278;BMP280;61204;49.980;8.358;2024-01-30T03:20:56;101862.66;;;-0.46
72278;BMP280;61204;49.980;8.358;2024-01-30T03:23:23;101861.81;;;-0.52
72278;BMP280;61204;49.980;8.358;2024-01-30T03:25:49;101861.13;;;-0.62
72278;BMP280;61204;49.980;8.358;2024-01-30T03:28:15;101861.97;;;-0.70
72278;BMP280;61204;49.980;8.358;2024-01-30T03:30:40;101863.06;;;-0.77
72278;BMP280;61204;49.980;8.358;2024-01-30T03:33:06;101866.41;;;-0.82
72278;BMP280;61204;49.980;8.358;2024-01-30T03:35:34;101868.34;;;-0.83
72278;BMP280;61204;49.980;8.358;2024-01-30T03:37:59;101871.66;;;-0.88
72278;BMP280;61204;49.980;8.358;2024-01-30T03:40:25;101869.28;;;-0.86
72278;BMP280;61204;49.980;8.358;2024-01-30T03:42:52;101873.91;;;-0.86
72278;BMP280;61204;49.980;8.358;2024-01-30T03:45:18;101867.31;;;-0.85
72278;BMP280;61204;49.980;8.358;2024-01-30T03:47:44;101868.34;;;-0.83
72278;BMP280;61204;49.980;8.358;2024-01-30T03:50:10;101863.97;;;-0.80
72278;BMP280;61204;49.980;8.358;2024-01-30T03:52:38;101862.31;;;-0.78
72278;BMP280;61204;49.980;8.358;2024-01-30T03:55:04;101855.28;;;-0.75
72278;BMP280;61204;49.980;8.358;2024-01-30T03:57:32;101858.72;;;-0.75
72278;BMP280;61204;49.980;8.358;2024-01-30T03:59:58;101857.44;;;-0.50
72278;BMP280;61204;49.980;8.358;2024-01-30T04:02:23;101859.59;;;-0.39
72278;BMP280;61204;49.980;8.358;2024-01-30T04:04:49;101851.59;;;-0.48
72278;BMP280;61204;49.980;8.358;2024-01-30T04:07:15;101850.56;;;-0.51
72278;BMP280;61204;49.980;8.358;2024-01-30T04:09:40;101860.31;;;-0.53
72278;BMP280;61204;49.980;8.358;2024-01-30T04:12:08;101851.56;;;-0.63
72278;BMP280;61204;49.980;8.358;2024-01-30T04:14:34;101853.25;;;-0.65
72278;BMP280;61204;49.980;8.358;2024-01-30T04:17:00;101850.63;;;-0.75
72278;BMP280;61204;49.980;8.358;2024-01-30T04:19:26;101853.94;;;-0.80
72278;BMP280;61204;49.980;8.358;2024-01-30T04:21:51;101857.47;;;-0.88
72278;BMP280;61204;49.980;8.358;2024-01-30T04:24:17;101858.94;;;-0.87
72278;BMP280;61204;49.980;8.358;2024-01-30T04:26:43;101857.41;;;-0.79
72278;BMP280;61204;49.980;8.358;2024-01-30T04:29:14;101858.97;;;-0.73
72278;BMP280;61204;49.980;8.358;2024-01-30T04:31:39;101857.88;;;-0.66
72278;BMP280;61204;49.980;8.358;2024-01-30T04:34:05;101854.00;;;-0.50
72278;BMP280;61204;49.980;8.358;2024-01-30T04:36:32;101858.03;;;-0.31
72278;BMP280;61204;49.980;8.358;2024-01-30T04:38:58;101858.97;;;-0.34
72278;BMP280;61204;49.980;8.358;2024-01-30T04:41:24;101860.63;;;-0.36
72278;BMP280;61204;49.980;8.358;2024-01-30T04:43:51;101852.72;;;-0.40
72278;BMP280;61204;49.980;8.358;2024-01-30T04:46:21;101858.41;;;-0.38
72278;BMP280;61204;49.980;8.358;2024-01-30T04:48:47;101855.72;;;-0.38
72278;BMP280;61204;49.980;8.358;2024-01-30T04:51:12;101855.41;;;-0.40
72278;BMP280;61204;49.980;8.358;2024-01-30T04:53:38;101861.34;;;-0.51
72278;BMP280;61204;49.980;8.358;2024-01-30T04:56:05;101851.31;;;-0.50
72278;BMP280;61204;49.980;8.358;2024-01-30T04:58:33;101862.81;;;-0.50
72278;BMP280;61204;49.980;8.358;2024-01-30T05:00:59;101862.19;;;-0.59
72278;BMP280;61204;49.980;8.358;2024-01-30T05:03:27;101862.06;;;-0.65
72278;BMP280;61204;49.980;8.358;2024-01-30T05:05:55;101864.50;;;-0.67
72278;BMP280;61204;49.980;8.358;2024-01-30T05:08:25;101869.66;;;-0.78
72278;BMP280;61204;49.980;8.358;2024-01-30T05:10:51;101871.09;;;-0.92
72278;BMP280;61204;49.980;8.358;2024-01-30T05:13:16;101869.50;;;-0.99
72278;BMP280;61204;49.980;8.358;2024-01-30T05:15:42;101871.19;;;-1.01
72278;BMP280;61204;49.980;8.358;2024-01-30T05:18:08;101875.81;;;-1.02
72278;BMP280;61204;49.980;8.358;2024-01-30T05:20:33;101867.06;;;-1.11
72278;BMP280;61204;49.980;8.358;2024-01-30T05:22:59;101873.31;;;-1.05
72278;BMP280;61204;49.980;8.358;2024-01-30T05:25:24;101870.94;;;-1.12
72278;BMP280;61204;49.980;8.358;2024-01-30T05:27:50;101868.25;;;-1.12
72278;BMP280;61204;49.980;8.358;2024-01-30T05:30:18;101864.53;;;-1.15
72278;BMP280;61204;49.980;8.358;2024-01-30T05:32:45;101872.34;;;-1.17
72278;BMP280;61204;49.980;8.358;2024-01-30T05:35:11;101873.97;;;-1.19
72278;BMP280;61204;49.980;8.358;2024-01-30T05:37:37;101876.69;;;-1.19
72278;BMP280;61204;49.980;8.358;2024-01-30T05:40:02;101880.56;;;-1.20
72278;BMP280;61204;49.980;8.358;2024-01-30T05:42:29;101879.38;;;-1.19
72278;BMP280;61204;49.980;8.358;2024-01-30T05:44:55;101880.84;;;-1.18
72278;BMP280;61204;49.980;8.358;2024-01-30T05:47:20;101871.59;;;-1.17
72278;BMP280;61204;49.980;8.358;2024-01-30T05:49:46;101866.22;;;-1.17
72278;BMP280;61204;49.980;8.358;2024-01-30T05:52:11;101867.22;;;-1.15
72278;BMP280;61204;49.980;8.358;2024-01-30T05:54:40;101864.94;;;-1.07
72278;BMP280;61204;49.980;8.358;2024-01-30T05:57:06;101870.44;;;-1.02
72278;BMP280;61204;49.980;8.358;2024-01-30T05:59:32;101875.34;;;-1.00
72278;BMP280;61204;49.980;8.358;2024-01-30T06:01:57;101875.19;;;-0.97
72278;BMP280;61204;49.980;8.358;2024-01-30T06:04:23;101878.75;;;-0.90
72278;BMP280;61204;49.980;8.358;2024-01-30T06:06:49;101881.69;;;-0.88
72278;BMP280;61204;49.980;8.358;2024-01-30T06:09:16;101874.84;;;-0.89
72278;BMP280;61204;49.980;8.358;2024-01-30T06:11:42;101885.59;;;-0.89
72278;BMP280;61204;49.980;8.358;2024-01-30T06:14:07;101882.16;;;-0.90
72278;BMP280;61204;49.980;8.358;2024-01-30T06:16:33;101882.16;;;-0.90
72278;BMP280;61204;49.980;8.358;2024-01-30T06:18:59;101884.91;;;-0.75
72278;BMP280;61204;49.980;8.358;2024-01-30T06:21:25;101879.63;;;-0.69
72278;BMP280;61204;49.980;8.358;2024-01-30T06:23:53;101882.31;;;-0.69
72278;BMP280;61204;49.980;8.358;2024-01-30T06:26:18;101883.78;;;-0.68
72278;BMP280;61204;49.980;8.358;2024-01-30T06:28:48;101878.16;;;-0.56
72278;BMP280;61204;49.980;8.358;2024-01-30T06:31:14;101886.16;;;-0.46
72278;BMP280;61204;49.980;8.358;2024-01-30T06:33:39;101889.22;;;-0.39
72278;BMP280;61204;49.980;8.358;2024-01-30T06:36:07;101883.66;;;-0.50
72278;BMP280;61204;49.980;8.358;2024-01-30T06:38:33;101880.91;;;-0.65
72278;BMP280;61204;49.980;8.358;2024-01-30T06:40:58;101880.25;;;-0.75
72278;BMP280;61204;49.980;8.358;2024-01-30T06:43:24;101884.78;;;-0.81
72278;BMP280;61204;49.980;8.358;2024-01-30T06:45:52;101887.78;;;-0.79
72278;BMP280;61204;49.980;8.358;2024-01-30T06:48:17;101894.09;;;-0.82
72278;BMP280;61204;49.980;8.358;2024-01-30T06:50:45;101894.38;;;-0.65
72278;BMP280;61204;49.980;8.358;2024-01-30T06:53:11;101891.53;;;-0.46
72278;BMP280;61204;49.980;8.358;2024-01-30T06:55:36;101890.75;;;-0.38
72278;BMP280;61204;49.980;8.358;2024-01-30T06:58:02;101895.75;;;-0.45
72278;BMP280;61204;49.980;8.358;2024-01-30T07:00:31;101891.06;;;-0.60
72278;BMP280;61204;49.980;8.358;2024-01-30T07:03:01;101883.63;;;-0.65
72278;BMP280;61204;49.980;8.358;2024-01-30T07:05:27;101880.09;;;-0.71
72278;BMP280;61204;49.980;8.358;2024-01-30T07:07:55;101883.22;;;-0.73
72278;BMP280;61204;49.980;8.358;2024-01-30T07:10:23;101881.47;;;-0.76
72278;BMP280;61204;49.980;8.358;2024-01-30T07:12:48;101886.59;;;-0.63
72278;BMP280;61204;49.980;8.358;2024-01-30T07:15:14;101887.91;;;-0.58
72278;BMP280;61204;49.980;8.358;2024-01-30T07:17:46;101890.81;;;-0.47
72278;BMP280;61204;49.980;8.358;2024-01-30T07:20:14;101891.38;;;-0.43
72278;BMP280;61204;49.980;8.358;2024-01-30T07:22:40;101887.66;;;-0.45
72278;BMP280;61204;49.980;8.358;2024-01-30T07:25:08;101887.56;;;-0.36
72278;BMP280;61204;49.980;8.358;2024-01-30T07:27:34;101885.28;;;-0.14
72278;BMP280;61204;49.980;8.358;2024-01-30T07:29:59;101899.69;;;-0.17
72278;BMP280;61204;49.980;8.358;2024-01-30T07:32:25;101894.66;;;0.06
72278;BMP280;61204;49.980;8.358;2024-01-30T07:34:50;101887.97;;;0.01
72278;BMP280;61204;49.980;8.358;2024-01-30T07:37:16;101894.19;;;0.07
72278;BMP280;61204;49.980;8.358;2024-01-30T07:39:42;101894.78;;;-0.04
72278;BMP280;61204;49.980;8.358;2024-01-30T07:42:08;101897.19;;;0.09
72278;BMP280;61204;49.980;8.358;2024-01-30T07:44:33;101902.28;;;0.22
72278;BMP280;61204;49.980;8.358;2024-01-30T07:46:59;101902.75;;;0.20
72278;BMP280;61204;49.980;8.358;2024-01-30T07:49:25;101897.25;;;0.15
72278;BMP280;61204;49.980;8.358;2024-01-30T07:51:53;101896.44;;;0.09
72278;BMP280;61204;49.980;8.358;2024-01-30T07:54:18;101902.56;;;0.09
72278;BMP280;61204;49.980;8.358;2024-01-30T07:56:44;101895.59;;;0.17
72278;BMP280;61204;49.980;8.358;2024-01-30T07:59:10;101904.53;;;0.23
72278;BMP280;61204;49.980;8.358;2024-01-30T08:01:39;101905.25;;;0.24
72278;BMP280;61204;49.980;8.358;2024-01-30T08:04:05;101904.59;;;0.14
72278;BMP280;61204;49.980;8.358;2024-01-30T08:06:30;101911.06;;;0.37
72278;BMP280;61204;49.980;8.358;2024-01-30T08:08:56;101913.75;;;0.52
72278;BMP280;61204;49.980;8.358;2024-01-30T08:11:26;101917.50;;;0.75
72278;BMP280;61204;49.980;8.358;2024-01-30T08:13:54;101919.94;;;0.73
72278;BMP280;61204;49.980;8.358;2024-01-30T08:16:22;101921.16;;;0.92
72278;BMP280;61204;49.980;8.358;2024-01-30T08:18:48;101916.66;;;1.04
72278;BMP280;61204;49.980;8.358;2024-01-30T08:21:13;101914.78;;;1.10
72278;BMP280;61204;49.980;8.358;2024-01-30T08:23:39;101908.69;;;1.15
72278;BMP280;61204;49.980;8.358;2024-01-30T08:26:05;101917.16;;;1.29
72278;BMP280;61204;49.980;8.358;2024-01-30T08:28:31;101919.97;;;1.40
72278;BMP280;61204;49.980;8.358;2024-01-30T08:31:01;101909.13;;;1.34
72278;BMP280;61204;49.980;8.358;2024-01-30T08:33:26;101913.38;;;1.41
72278;BMP280;61204;49.980;8.358;2024-01-30T08:35:52;101913.94;;;1.51
72278;BMP280;61204;49.980;8.358;2024-01-30T08:38:18;101918.03;;;1.66
72278;BMP280;61204;49.980;8.358;2024-01-30T08:40:43;101922.91;;;1.62
72278;BMP280;61204;49.980;8.358;2024-01-30T08:43:09;101924.41;;;1.63
72278;BMP280;61204;49.980;8.358;2024-01-30T08:45:35;101925.09;;;1.58
72278;BMP280;61204;49.980;8.358;2024-01-30T08:48:00;101923.22;;;1.70
72278;BMP280;61204;49.980;8.358;2024-01-30T08:50:26;101923.91;;;1.91
72278;BMP280;61204;49.980;8.358;2024-01-30T08:52:54;101917.78;;;1.96
72278;BMP280;61204;49.980;8.358;2024-01-30T08:55:20;101907.63;;;1.85
72278;BMP280;61204;49.980;8.358;2024-01-30T08:57:45;101920.19;;;1.88
72278;BMP280;61204;49.980;8.358;2024-01-30T09:00:11;101916.59;;;1.97
72278;BMP280;61204;49.980;8.358;2024-01-30T09:02:37;101921.56;;;2.04
72278;BMP280;61204;49.980;8.358;2024-01-30T09:05:03;101930.19;;;2.08
72278;BMP280;61204;49.980;8.358;2024-01-30T09:07:29;101928.13;;;2.24
72278;BMP280;61204;49.980;8.358;2024-01-30T09:09:57;101930.94;;;2.09
72278;BMP280;61204;49.980;8.358;2024-01-30T09:12:23;101923.97;;;2.28
72278;BMP280;61204;49.980;8.358;2024-01-30T09:14:48;101925.94;;;2.28
72278;BMP280;61204;49.980;8.358;2024-01-30T09:17:16;101931.50;;;2.56
72278;BMP280;61204;49.980;8.358;2024-01-30T09:19:42;101922.19;;;2.62
72278;BMP280;61204;49.980;8.358;2024-01-30T09:22:10;101928.41;;;2.74
72278;BMP280;61204;49.980;8.358;2024-01-30T09:24:36;101925.41;;;2.66
72278;BMP280;61204;49.980;8.358;2024-01-30T09:27:02;101938.28;;;2.83
72278;BMP280;61204;49.980;8.358;2024-01-30T09:29:27;101931.44;;;2.98
72278;BMP280;61204;49.980;8.358;2024-01-30T09:31:55;101940.06;;;2.97
72278;BMP280;61204;49.980;8.358;2024-01-30T09:34:20;101938.47;;;3.22
72278;BMP280;61204;49.980;8.358;2024-01-30T09:36:46;101931.81;;;3.40
72278;BMP280;61204;49.980;8.358;2024-01-30T09:39:12;101930.84;;;3.54
72278;BMP280;61204;49.980;8.358;2024-01-30T09:41:55;101933.34;;;3.69
72278;BMP280;61204;49.980;8.358;2024-01-30T09:44:30;101936.28;;;3.60
72278;BMP280;61204;49.980;8.358;2024-01-30T09:46:56;101939.50;;;3.81
72278;BMP280;61204;49.980;8.358;2024-01-30T09:49:29;101940.00;;;3.73
72278;BMP280;61204;49.980;8.358;2024-01-30T09:51:58;101941.97;;;3.84
72278;BMP280;61204;49.980;8.358;2024-01-30T09:54:24;101935.78;;;3.78
72278;BMP280;61204;49.980;8.358;2024-01-30T09:56:55;101942.22;;;4.03
72278;BMP280;61204;49.980;8.358;2024-01-30T09:59:20;101944.88;;;4.20
72278;BMP280;61204;49.980;8.358;2024-01-30T10:01:50;101951.09;;;4.32
72278;BMP280;61204;49.980;8.358;2024-01-30T10:04:16;101947.09;;;4.38
72278;BMP280;61204;49.980;8.358;2024-01-30T10:06:42;101959.38;;;4.67
72278;BMP280;61204;49.980;8.358;2024-01-30T10:09:08;101969.53;;;4.50
72278;BMP280;61204;49.980;8.358;2024-01-30T10:11:36;101971.81;;;4.29
72278;BMP280;61204;49.980;8.358;2024-01-30T10:14:02;101972.28;;;4.39
72278;BMP280;61204;49.980;8.358;2024-01-30T10:16:30;101967.38;;;4.32
72278;BMP280;61204;49.980;8.358;2024-01-30T10:18:55;101958.94;;;4.41
72278;BMP280;61204;49.980;8.358;2024-01-30T10:21:21;101953.47;;;4.58
72278;BMP280;61204;49.980;8.358;2024-01-30T10:23:49;101959.28;;;4.90
72278;BMP280;61204;49.980;8.358;2024-01-30T10:26:18;101958.03;;;4.91
72278;BMP280;61204;49.980;8.358;2024-01-30T10:28:47;101963.16;;;5.11
72278;BMP280;61204;49.980;8.358;2024-01-30T10:31:17;101968.28;;;5.15
72278;BMP280;61204;49.980;8.358;2024-01-30T10:33:46;101980.63;;;5.27
72278;BMP280;61204;49.980;8.358;2024-01-30T10:36:17;101976.91;;;5.24
72278;BMP280;61204;49.980;8.358;2024-01-30T10:38:43;101976.16;;;5.65
72278;BMP280;61204;49.980;8.358;2024-01-30T10:41:12;101990.47;;;6.01
72278;BMP280;61204;49.980;8.358;2024-01-30T10:43:49;101980.44;;;6.15
72278;BMP280;61204;49.980;8.358;2024-01-30T10:46:34;101999.72;;;6.42
72278;BMP280;61204;49.980;8.358;2024-01-30T10:49:04;102016.47;;;6.27
72278;BMP280;61204;49.980;8.358;2024-01-30T10:51:31;102006.38;;;6.22
72278;BMP280;61204;49.980;8.358;2024-01-30T10:54:00;102007.03;;;6.34
72278;BMP280;61204;49.980;8.358;2024-01-30T10:56:28;101994.03;;;6.40
72278;BMP280;61204;49.980;8.358;2024-01-30T10:58:55;102004.91;;;6.45
72278;BMP280;61204;49.980;8.358;2024-01-30T11:01:21;102005.19;;;6.42
72278;BMP280;61204;49.980;8.358;2024-01-30T11:03:53;102015.97;;;6.53
72278;BMP280;61204;49.980;8.358;2024-01-30T11:06:23;102027.72;;;6.42
72278;BMP280;61204;49.980;8.358;2024-01-30T11:09:05;102014.22;;;6.31
72278;BMP280;61204;49.980;8.358;2024-01-30T11:11:56;102005.75;;;6.59
72278;BMP280;61204;49.980;8.358;2024-01-30T11:14:30;101998.63;;;6.50
72278;BMP280;61204;49.980;8.358;2024-01-30T11:16:59;101995.41;;;6.95
72278;BMP280;61204;49.980;8.358;2024-01-30T11:19:25;101987.16;;;7.52
72278;BMP280;61204;49.980;8.358;2024-01-30T11:21:53;102002.81;;;7.97
72278;BMP280;61204;49.980;8.358;2024-01-30T11:24:22;102003.75;;;7.99
72278;BMP280;61204;49.980;8.358;2024-01-30T11:26:56;102009.97;;;8.26
72278;BMP280;61204;49.980;8.358;2024-01-30T11:29:29;102011.34;;;8.20
72278;BMP280;61204;49.980;8.358;2024-01-30T11:31:58;102004.94;;;8.30
72278;BMP280;61204;49.980;8.358;2024-01-30T11:34:26;101999.25;;;8.15
72278;BMP280;61204;49.980;8.358;2024-01-30T11:36:56;102004.50;;;8.26
72278;BMP280;61204;49.980;8.358;2024-01-30T11:39:25;102005.97;;;8.01
72278;BMP280;61204;49.980;8.358;2024-01-30T11:41:52;102004.69;;;7.88
72278;BMP280;61204;49.980;8.358;2024-01-30T11:44:19;101996.94;;;7.93
72278;BMP280;61204;49.980;8.358;2024-01-30T11:46:47;102000.59;;;7.82
72278;BMP280;61204;49.980;8.358;2024-01-30T11:49:17;101993.53;;;7.86
72278;BMP280;61204;49.980;8.358;2024-01-30T11:51:45;101999.72;;;7.87
72278;BMP280;61204;49.980;8.358;2024-01-30T11:54:13;101995.22;;;7.89
72278;BMP280;61204;49.980;8.358;2024-01-30T11:56:43;101998.72;;;8.03
72278;BMP280;61204;49.980;8.358;2024-01-30T11:59:09;101990.06;;;7.86
72278;BMP280;61204;49.980;8.358;2024-01-30T12:01:35;101987.25;;;8.05
72278;BMP280;61204;49.980;8.358;2024-01-30T12:04:01;101986.44;;;8.10
72278;BMP280;61204;49.980;8.358;2024-01-30T12:06:28;101995.78;;;8.54
72278;BMP280;61204;49.980;8.358;2024-01-30T12:08:58;101986.41;;;8.50
72278;BMP280;61204;49.980;8.358;2024-01-30T12:11:27;101988.53;;;8.30
72278;BMP280;61204;49.980;8.358;2024-01-30T12:13:55;101982.97;;;8.36
72278;BMP280;61204;49.980;8.358;2024-01-30T12:16:22;101974.00;;;8.49
72278;BMP280;61204;49.980;8.358;2024-01-30T12:18:48;101976.03;;;8.95
72278;BMP280;61204;49.980;8.358;2024-01-30T12:21:17;101978.56;;;9.14
72278;BMP280;61204;49.980;8.358;2024-01-30T12:23:44;101976.50;;;9.28
72278;BMP280;61204;49.980;8.358;2024-01-30T12:26:10;101972.31;;;9.27
72278;BMP280;61204;49.980;8.358;2024-01-30T12:28:36;101973.13;;;9.64
72278;BMP280;61204;49.980;8.358;2024-01-30T12:31:02;101978.16;;;9.73
72278;BMP280;61204;49.980;8.358;2024-01-30T12:33:29;101975.31;;;9.58
72278;BMP280;61204;49.980;8.358;2024-01-30T12:35:57;101971.53;;;9.68
72278;BMP280;61204;49.980;8.358;2024-01-30T12:38:27;101974.00;;;9.79
72278;BMP280;61204;49.980;8.358;2024-01-30T12:40:55;101969.41;;;10.03
72278;BMP280;61204;49.980;8.358;2024-01-30T12:43:22;101971.59;;;10.04
72278;BMP280;61204;49.980;8.358;2024-01-30T12:45:50;101976.91;;;10.46
72278;BMP280;61204;49.980;8.358;2024-01-30T12:48:15;101984.69;;;10.27
72278;BMP280;61204;49.980;8.358;2024-01-30T12:50:41;101981.53;;;10.67
72278;BMP280;61204;49.980;8.358;2024-01-30T12:53:07;101988.94;;;10.43
72278;BMP280;61204;49.980;8.358;2024-01-30T12:55:34;101978.19;;;10.45
72278;BMP280;61204;49.980;8.358;2024-01-30T12:58:00;101969.78;;;10.51
72278;BMP280;61204;49.980;8.358;2024-01-30T13:00:26;101959.56;;;10.67
72278;BMP280;61204;49.980;8.358;2024-01-30T13:02:52;101957.72;;;10.46
72278;BMP280;61204;49.980;8.358;2024-01-30T13:05:18;101960.03;;;10.34
72278;BMP280;61204;49.980;8.358;2024-01-30T13:07:46;101954.19;;;9.94
72278;BMP280;61204;49.980;8.358;2024-01-30T13:10:11;101961.91;;;9.75
72278;BMP280;61204;49.980;8.358;2024-01-30T13:12:37;101960.13;;;9.77
72278;BMP280;61204;49.980;8.358;2024-01-30T13:15:06;101954.22;;;9.73
72278;BMP280;61204;49.980;8.358;2024-01-30T13:17:32;101951.19;;;9.56
72278;BMP280;61204;49.980;8.358;2024-01-30T13:19:58;101950.13;;;9.59
72278;BMP280;61204;49.980;8.358;2024-01-30T13:22:24;101952.03;;;9.43
72278;BMP280;61204;49.980;8.358;2024-01-30T13:24:50;101946.84;;;9.19
72278;BMP280;61204;49.980;8.358;2024-01-30T13:27:16;101952.19;;;9.45
72278;BMP280;61204;49.980;8.358;2024-01-30T13:29:42;101939.22;;;9.67
72278;BMP280;61204;49.980;8.358;2024-01-30T13:32:07;101929.66;;;9.60
72278;BMP280;61204;49.980;8.358;2024-01-30T13:34:33;101925.13;;;9.63
72278;BMP280;61204;49.980;8.358;2024-01-30T13:37:01;101936.16;;;9.70
72278;BMP280;61204;49.980;8.358;2024-01-30T13:39:26;101940.94;;;9.77
72278;BMP280;61204;49.980;8.358;2024-01-30T13:41:54;101941.25;;;9.74
72278;BMP280;61204;49.980;8.358;2024-01-30T13:44:19;101937.72;;;9.94
72278;BMP280;61204;49.980;8.358;2024-01-30T13:46:46;101939.38;;;9.97
72278;BMP280;61204;49.980;8.358;2024-01-30T13:49:12;101940.94;;;10.14
72278;BMP280;61204;49.980;8.358;2024-01-30T13:51:37;101930.94;;;9.59
72278;BMP280;61204;49.980;8.358;2024-01-30T13:54:03;101936.41;;;8.96
72278;BMP280;61204;49.980;8.358;2024-01-30T13:56:29;101930.38;;;9.32
72278;BMP280;61204;49.980;8.358;2024-01-30T13:58:57;101944.28;;;9.63
72278;BMP280;61204;49.980;8.358;2024-01-30T14:01:25;101934.41;;;9.60